Time;durP1;ratioP1;P1;durP2;ratioP2;P2;SDS_P1;SDS_P2;PMS_P1;PMS_P2;Temp;Humidity;BMP_temperature;BMP_pressure;BME280_temperature;BME280_humidity;BME280_pressure;Samples;Min_cycle;Max_cycle;Signal;HPM_P1;HPM_P2
2021/06/04 00:00:27;;;;;;;2.55;2.25;;;;;;;15.74;98.78;96191.28;1037864;28;20032;-72
2021/06/04 00:00:58;;;;;;;3.08;2.30;;;;;;;15.81;96.75;96195.44;1041895;28;20028;-71
2021/06/04 00:01:30;;;;;;;4.72;2.70;;;;;;;15.72;97.17;96188.13;1042486;28;20037;-68
2021/06/04 00:02:01;;;;;;;2.50;2.30;;;;;;;15.73;94.06;96187.06;1034946;28;20018;-71
2021/06/04 00:02:31;;;;;;;3.65;2.42;;;;;;;15.77;93.23;96193.34;1030791;28;20022;-72
2021/06/04 00:03:12;;;;;;;5.32;2.28;;;;;;;15.75;93.86;96198.13;1031006;28;20871;-72
2021/06/04 00:03:42;;;;;;;4.68;2.55;;;;;;;15.68;95.21;96196.91;1030819;28;20637;-71
2021/06/04 00:04:13;;;;;;;8.13;3.13;;;;;;;15.71;95.29;96205.06;1030771;28;20129;-71
2021/06/04 00:04:43;;;;;;;4.85;2.80;;;;;;;15.72;94.41;96211.16;1030896;28;20088;-71
2021/06/04 00:05:14;;;;;;;6.13;2.78;;;;;;;15.48;95.30;96174.88;1037511;28;20041;-71
2021/06/04 00:05:47;;;;;;;2.75;2.17;;;;;;;15.68;94.75;96205.63;1030033;28;20385;-71
2021/06/04 00:06:18;;;;;;;2.53;2.33;;;;;;;15.70;94.93;96208.81;1030717;28;20089;-71
2021/06/04 00:06:51;;;;;;;5.97;2.80;;;;;;;15.62;95.60;96196.16;1036144;28;20029;-72
2021/06/04 00:07:21;;;;;;;4.53;2.50;;;;;;;15.65;99.21;96208.81;1035043;28;20546;-71
2021/06/04 00:07:52;;;;;;;13.55;3.17;;;;;;;15.63;98.29;96203.03;1034810;28;20021;-71
2021/06/04 00:08:23;;;;;;;4.65;2.63;;;;;;;15.59;96.45;96196.72;1032182;28;20090;-71
2021/06/04 00:08:54;;;;;;;2.53;2.33;;;;;;;15.62;96.99;96209.38;1031226;28;20037;-72
2021/06/04 00:09:24;;;;;;;3.03;2.50;;;;;;;15.59;98.19;96206.50;1026749;28;20035;-72
2021/06/04 00:09:55;;;;;;;4.28;2.75;;;;;;;15.57;100.00;96207.59;1030806;28;20026;-71
2021/06/04 00:10:29;;;;;;;4.93;3.03;;;;;;;15.54;100.00;96210.00;1030748;28;20022;-71
2021/06/04 00:11:05;;;;;;;7.50;3.03;;;;;;;15.53;100.00;96211.09;1039715;28;20091;-72
2021/06/04 00:11:40;;;;;;;4.32;2.70;;;;;;;15.52;100.00;96206.84;1042902;28;20036;-72
2021/06/04 00:12:11;;;;;;;5.43;3.00;;;;;;;15.50;100.00;96206.38;1042961;28;20407;-72
2021/06/04 00:12:41;;;;;;;3.70;2.78;;;;;;;15.43;100.00;96195.34;1030742;28;20033;-72
2021/06/04 00:13:14;;;;;;;6.78;3.58;;;;;;;15.49;100.00;96207.41;1026874;28;20027;-71
2021/06/04 00:13:47;;;;;;;6.07;2.88;;;;;;;15.47;100.00;96204.28;1029555;28;20034;-71
2021/06/04 00:14:20;;;;;;;3.25;2.40;;;;;;;15.42;100.00;96201.69;1031323;28;20046;-72
2021/06/04 00:14:52;;;;;;;8.27;3.40;;;;;;;15.47;100.00;96207.72;1030134;28;20662;-71
2021/06/04 00:15:25;;;;;;;7.15;3.22;;;;;;;15.43;100.00;96204.06;1028320;28;20030;-72
2021/06/04 00:16:02;;;;;;;5.25;3.10;;;;;;;15.46;100.00;96207.97;1029087;28;20542;-71
2021/06/04 00:16:35;;;;;;;11.75;3.05;;;;;;;15.45;100.00;96211.69;1033715;28;20038;-72
2021/06/04 00:17:25;;;;;;;9.18;3.28;;;;;;;15.41;100.00;96202.75;1031870;28;20519;-71
2021/06/04 00:17:56;;;;;;;11.52;2.60;;;;;;;15.48;100.00;96211.91;1033923;28;20014;-71
2021/06/04 00:18:26;;;;;;;8.70;3.03;;;;;;;15.45;100.00;96211.69;1034560;28;20048;-71
2021/06/04 00:18:58;;;;;;;12.50;3.42;;;;;;;15.45;100.00;96209.06;1031048;28;20353;-71
2021/06/04 00:19:30;;;;;;;10.48;3.10;;;;;;;15.42;100.00;96206.97;1030674;28;20022;-72
2021/06/04 00:20:00;;;;;;;5.57;2.85;;;;;;;15.47;100.00;96215.63;1030435;28;20018;-71
2021/06/04 00:20:31;;;;;;;9.65;2.70;;;;;;;15.47;100.00;96213.00;1030474;28;20022;-71
2021/06/04 00:21:05;;;;;;;7.80;2.63;;;;;;;15.42;100.00;96202.47;1031184;28;20023;-72
2021/06/04 00:21:45;;;;;;;6.05;2.67;;;;;;;15.46;100.00;96218.56;1034879;28;20520;-71
2021/06/04 00:22:18;;;;;;;9.05;2.80;;;;;;;15.41;100.00;96208.03;1037880;28;20096;-72
2021/06/04 00:22:49;;;;;;;5.68;2.47;;;;;;;15.39;100.00;96196.94;1038917;28;20112;-71
2021/06/04 00:23:20;;;;;;;5.22;2.80;;;;;;;15.48;100.00;96217.22;1034587;28;20384;-71
2021/06/04 00:23:51;;;;;;;7.18;2.67;;;;;;;15.48;100.00;96217.22;1036622;28;20010;-72
2021/06/04 00:24:22;;;;;;;3.75;2.80;;;;;;;15.48;100.00;96214.56;1030842;28;20088;-72
2021/06/04 00:24:54;;;;;;;6.20;2.50;;;;;;;15.48;100.00;96219.84;1028580;28;20527;-72
2021/06/04 00:25:28;;;;;;;2.97;2.65;;;;;;;15.52;100.00;96217.44;1034565;28;20072;-71
2021/06/04 00:25:58;;;;;;;4.03;2.67;;;;;;;15.50;100.00;96214.28;1030741;28;20010;-71
2021/06/04 00:26:29;;;;;;;5.63;2.55;;;;;;;15.58;100.00;96224.25;1027949;28;20023;-71
2021/06/04 00:27:00;;;;;;;3.95;2.78;;;;;;;15.56;100.00;96218.47;1031731;28;20019;-71
2021/06/04 00:27:30;;;;;;;5.43;2.80;;;;;;;15.59;100.00;96220.53;1030785;28;20124;-72
2021/06/04 00:28:01;;;;;;;6.43;2.80;;;;;;;15.61;100.00;96221.03;1027050;28;20488;-70
2021/06/04 00:28:32;;;;;;;2.78;2.33;;;;;;;15.62;100.00;96217.31;1030457;28;20507;-70
2021/06/04 00:29:03;;;;;;;3.67;2.83;;;;;;;15.62;100.00;96214.66;1033721;28;20084;-70
2021/06/04 00:29:33;;;;;;;4.18;2.35;;;;;;;15.64;100.00;96220.47;1030838;28;20117;-71
2021/06/04 00:30:05;;;;;;;3.28;2.55;;;;;;;15.61;100.00;96210.47;1035115;28;20026;-71
2021/06/04 00:30:35;;;;;;;3.55;2.90;;;;;;;15.67;100.00;96204.06;1035312;28;20061;-68
2021/06/04 00:31:06;;;;;;;3.75;2.28;;;;;;;15.72;100.00;96211.94;1034842;28;20061;-71
2021/06/04 00:31:36;;;;;;;4.15;2.47;;;;;;;15.74;100.00;96220.38;1031779;28;20403;-71
2021/06/04 00:32:08;;;;;;;2.55;2.35;;;;;;;15.70;100.00;96211.44;1030835;28;20074;-71
2021/06/04 00:32:41;;;;;;;3.38;2.35;;;;;;;15.77;100.00;96209.22;1030634;28;20037;-71
2021/06/04 00:33:15;;;;;;;7.15;2.70;;;;;;;15.75;100.00;96207.94;1033760;28;20124;-71
2021/06/04 00:33:49;;;;;;;3.47;2.60;;;;;;;15.79;100.00;96208.94;1034639;28;20038;-71
2021/06/04 00:34:19;;;;;;;3.55;2.30;;;;;;;15.76;100.00;96209.50;1034798;28;20026;-71
2021/06/04 00:34:53;;;;;;;2.92;2.63;;;;;;;15.83;100.00;96214.44;1028721;28;20045;-71
2021/06/04 00:35:24;;;;;;;3.83;2.55;;;;;;;15.81;100.00;96203.38;1026725;28;20030;-71
2021/06/04 00:35:54;;;;;;;2.42;2.22;;;;;;;15.83;100.00;96206.50;1026818;28;20041;-71
2021/06/04 00:36:25;;;;;;;4.53;2.47;;;;;;;15.82;100.00;96197.00;1031283;28;20487;-71
2021/06/04 00:36:55;;;;;;;2.90;2.28;;;;;;;15.88;100.00;96209.09;1030429;28;20041;-71
2021/06/04 00:37:26;;;;;;;3.90;2.75;;;;;;;15.88;100.00;96206.47;1026640;28;20085;-71
2021/06/04 00:37:56;;;;;;;4.75;2.53;;;;;;;15.89;100.00;96213.31;1026996;28;20031;-71
2021/06/04 00:38:27;;;;;;;3.60;2.80;;;;;;;15.89;100.00;96210.66;1027052;28;20019;-71
2021/06/04 00:38:57;;;;;;;2.60;2.40;;;;;;;15.89;100.00;96206.16;1034682;28;20728;-71
2021/06/04 00:39:29;;;;;;;2.88;2.58;;;;;;;15.83;100.00;96196.75;1033789;28;20559;-71
2021/06/04 00:40:00;;;;;;;2.95;2.60;;;;;;;15.90;100.00;96207.75;1033329;28;20421;-72
2021/06/04 00:40:33;;;;;;;8.05;2.75;;;;;;;15.90;100.00;96207.75;1034996;28;20030;-72
2021/06/04 00:41:07;;;;;;;2.78;2.30;;;;;;;15.85;100.00;96199.09;1040695;28;20052;-72
2021/06/04 00:41:50;;;;;;;6.40;2.65;;;;;;;15.94;100.00;96207.97;1027183;28;20095;-70
2021/06/04 00:42:27;;;;;;;3.63;2.53;;;;;;;15.90;100.00;96199.03;1031004;28;20532;-71
2021/06/04 00:42:58;;;;;;;4.47;2.80;;;;;;;15.95;100.00;96206.88;1030794;28;20105;-72
2021/06/04 00:43:28;;;;;;;3.80;2.63;;;;;;;15.98;100.00;96203.69;1028796;28;20462;-70
2021/06/04 00:43:59;;;;;;;2.88;2.28;;;;;;;15.90;100.00;96199.03;1026895;28;20022;-71
2021/06/04 00:44:29;;;;;;;5.78;2.53;;;;;;;15.98;100.00;96203.69;1030563;28;20092;-72
2021/06/04 00:45:11;;;;;;;5.85;2.90;;;;;;;15.93;100.00;96196.59;1026459;28;20505;-72
2021/06/04 00:45:48;;;;;;;6.60;2.80;;;;;;;15.99;100.00;96202.59;1030549;28;20095;-71
2021/06/04 00:46:19;;;;;;;4.10;2.60;;;;;;;15.99;100.00;96205.25;1026667;28;20026;-72
2021/06/04 00:46:49;;;;;;;11.80;2.90;;;;;;;15.98;100.00;96204.47;1025206;28;20026;-70
2021/06/04 00:47:20;;;;;;;8.77;3.20;;;;;;;15.99;100.00;96208.69;1026639;28;20026;-72
2021/06/04 00:47:50;;;;;;;15.80;3.30;;;;;;;15.95;100.00;96202.38;1026697;28;20019;-72
2021/06/04 00:48:21;;;;;;;4.47;3.00;;;;;;;15.93;100.00;96195.81;1030748;28;20030;-72
2021/06/04 00:48:52;;;;;;;3.08;2.30;;;;;;;16.01;100.00;96203.91;1029812;28;20022;-71
2021/06/04 00:49:23;;;;;;;5.93;2.60;;;;;;;16.01;100.00;96208.41;1030705;28;20030;-71
2021/06/04 00:49:53;;;;;;;6.60;2.70;;;;;;;16.00;100.00;96198.91;1032279;28;20028;-71
2021/06/04 00:50:43;;;;;;;7.97;3.08;;;;;;;16.00;100.00;96204.97;1030589;28;20022;-71
2021/06/04 00:51:21;;;;;;;5.22;2.88;;;;;;;15.87;100.00;96179.22;1022859;29;20027;-68
2021/06/04 00:51:56;;;;;;;3.95;2.97;;;;;;;15.96;100.00;96192.56;1022907;28;20913;-71
2021/06/04 00:52:29;;;;;;;8.50;3.40;;;;;;;16.05;100.00;96204.09;1026580;28;20034;-72
2021/06/04 00:53:02;;;;;;;2.78;2.53;;;;;;;16.06;100.00;96210.97;1026783;28;20098;-71
2021/06/04 00:53:33;;;;;;;3.53;3.00;;;;;;;16.06;100.00;96203.03;1026139;28;20023;-71
2021/06/04 00:54:07;;;;;;;3.28;2.50;;;;;;;16.07;100.00;96204.63;1042944;28;20017;-71
2021/06/04 00:54:37;;;;;;;8.63;3.40;;;;;;;16.08;100.00;96208.06;1034676;28;20519;-71
2021/06/04 00:55:10;;;;;;;6.40;2.72;;;;;;;16.08;100.00;96208.84;1038876;28;20023;-71
2021/06/04 00:55:41;;;;;;;8.18;2.92;;;;;;;16.08;100.00;96203.53;1033918;28;20052;-70
2021/06/04 00:56:11;;;;;;;3.95;2.90;;;;;;;16.09;100.00;96205.09;1034363;28;20037;-70
2021/06/04 00:56:42;;;;;;;4.47;2.83;;;;;;;16.07;100.00;96207.28;1034616;28;20022;-71
2021/06/04 00:57:12;;;;;;;6.38;2.72;;;;;;;16.08;100.00;96203.53;1034487;28;20030;-71
2021/06/04 00:57:43;;;;;;;5.50;3.30;;;;;;;16.08;100.00;96200.91;1030555;28;20031;-72
2021/06/04 00:58:14;;;;;;;6.78;2.88;;;;;;;16.09;100.00;96205.09;1030751;28;20114;-71
2021/06/04 00:58:47;;;;;;;8.15;3.08;;;;;;;16.06;100.00;96195.09;1036827;28;20020;-71
2021/06/04 00:59:25;;;;;;;9.40;2.83;;;;;;;16.05;100.00;96193.53;1034864;28;20065;-72
2021/06/04 01:00:02;;;;;;;7.95;3.22;;;;;;;16.02;100.00;96197.53;1026631;28;20090;-72
2021/06/04 01:00:38;;;;;;;7.72;2.80;;;;;;;16.10;100.00;96206.69;1030392;28;20022;-71
2021/06/04 01:01:09;;;;;;;5.47;2.85;;;;;;;16.12;100.00;96209.06;1030694;28;20019;-71
2021/06/04 01:01:40;;;;;;;4.30;2.80;;;;;;;16.10;100.00;96198.75;1030725;28;20029;-71
2021/06/04 01:02:16;;;;;;;7.90;3.25;;;;;;;16.12;100.00;96201.88;1027335;28;20118;-71
2021/06/04 01:02:53;;;;;;;5.15;3.13;;;;;;;16.12;100.00;96203.75;1031603;28;20440;-72
2021/06/04 01:03:26;;;;;;;6.65;2.90;;;;;;;16.13;100.00;96205.31;1034825;28;20022;-72
2021/06/04 01:04:02;;;;;;;3.35;2.58;;;;;;;16.11;100.00;96208.25;1032235;28;20030;-72
2021/06/04 01:04:32;;;;;;;6.28;2.80;;;;;;;16.06;100.00;96195.09;1035379;28;20459;-71
2021/06/04 01:05:05;;;;;;;4.88;3.17;;;;;;;16.14;100.00;96207.69;1028013;28;20085;-72
2021/06/04 01:05:37;;;;;;;5.65;2.53;;;;;;;16.13;100.00;96216.72;1034754;28;20508;-71
2021/06/04 01:06:46;;;;;;;5.43;2.80;;;;;;;16.13;100.00;96207.97;1034178;28;20124;-71
2021/06/04 01:07:21;;;;;;;5.72;3.10;;;;;;;16.16;100.00;96216.16;1032193;28;20051;-72
2021/06/04 01:08:04;;;;;;;10.82;3.63;;;;;;;16.14;100.00;96213.00;1030371;28;20038;-72
2021/06/04 01:08:46;;;;;;;7.25;3.53;;;;;;;16.14;100.00;96213.00;1037296;28;20018;-71
2021/06/04 01:09:25;;;;;;;10.27;2.72;;;;;;;16.14;100.00;96213.00;1038906;28;20025;-70
2021/06/04 01:10:13;;;;;;;6.78;3.17;;;;;;;16.16;100.00;96220.63;1046920;28;20013;-71
2021/06/04 01:11:38;;;;;;;5.38;2.47;;;;;;;16.15;100.00;96211.13;1038496;28;20029;-72
2021/06/04 01:12:23;;;;;;;4.78;2.70;;;;;;;16.18;100.00;96215.84;1030418;28;20029;-71
2021/06/04 01:12:57;;;;;;;2.70;2.50;;;;;;;16.17;100.00;96215.06;1034311;28;20026;-71
2021/06/04 01:14:00;;;;;;;5.07;2.65;;;;;;;16.17;100.00;96215.06;1036961;28;20112;-71
2021/06/04 01:14:45;;;;;;;6.13;2.92;;;;;;;16.17;100.00;96215.06;1026001;28;20031;-71
2021/06/04 01:15:32;;;;;;;3.67;2.88;;;;;;;16.17;100.00;96212.41;1018440;28;20015;-71
2021/06/04 01:16:14;;;;;;;3.97;2.63;;;;;;;16.17;100.00;96212.41;1017617;29;20572;-71
2021/06/04 01:17:03;;;;;;;4.22;3.05;;;;;;;16.18;100.00;96214.00;1035960;28;20905;-72
2021/06/04 01:17:44;;;;;;;4.95;3.20;;;;;;;16.19;100.00;96212.13;1038502;28;20088;-72
2021/06/04 01:18:30;;;;;;;4.30;3.25;;;;;;;16.21;100.00;96210.78;1034863;28;20513;-71
2021/06/04 01:19:15;;;;;;;3.35;3.00;;;;;;;16.21;100.00;96210.78;1038752;28;20048;-71
2021/06/04 01:19:51;;;;;;;4.43;3.15;;;;;;;16.23;100.00;96206.00;1034572;28;20018;-71
2021/06/04 01:20:26;;;;;;;5.55;2.92;;;;;;;16.25;100.00;96205.69;1030864;28;20040;-71
2021/06/04 01:21:10;;;;;;;7.38;3.38;;;;;;;16.27;100.00;96211.50;1029546;28;20042;-71
2021/06/04 01:21:48;;;;;;;6.07;3.20;;;;;;;16.27;100.00;96204.34;1034896;28;20032;-71
2021/06/04 01:22:26;;;;;;;7.05;3.17;;;;;;;16.30;100.00;96207.47;1034743;28;20029;-71
2021/06/04 01:23:09;;;;;;;4.07;3.20;;;;;;;16.32;100.00;96210.63;1029958;28;20084;-71
2021/06/04 01:23:59;;;;;;;3.60;2.72;;;;;;;16.34;100.00;96208.50;1030762;28;20015;-72
2021/06/04 01:24:51;;;;;;;6.18;3.30;;;;;;;16.36;100.00;96214.25;1033787;28;20030;-71
2021/06/04 01:25:38;;;;;;;4.68;3.05;;;;;;;16.33;100.00;96210.34;1045852;28;20529;-71
2021/06/04 01:26:13;;;;;;;4.30;3.40;;;;;;;16.31;100.00;96206.41;1040006;28;20120;-71
2021/06/04 01:26:58;;;;;;;5.30;2.70;;;;;;;16.31;100.00;96198.47;1034841;28;20029;-72
2021/06/04 01:27:36;;;;;;;9.02;3.35;;;;;;;16.29;100.00;96198.72;1030607;28;20030;-71
2021/06/04 01:28:14;;;;;;;4.78;2.90;;;;;;;16.34;100.00;96216.44;1030584;28;20085;-71
2021/06/04 01:28:48;;;;;;;3.00;2.75;;;;;;;16.04;100.00;96165.47;1034666;28;20030;-71
2021/06/04 01:29:22;;;;;;;3.70;2.90;;;;;;;16.29;100.00;96205.91;1034589;28;20030;-72
2021/06/04 01:30:14;;;;;;;3.47;2.80;;;;;;;16.29;100.00;96211.97;1030670;28;20109;-71
2021/06/04 01:30:50;;;;;;;4.63;3.35;;;;;;;16.30;100.00;96210.13;1029293;28;20042;-72
2021/06/04 01:31:21;;;;;;;4.75;2.97;;;;;;;16.29;100.00;96211.19;1028886;28;20039;-70
2021/06/04 01:31:55;;;;;;;4.10;2.80;;;;;;;16.27;100.00;96206.19;1030724;28;20665;-71
2021/06/04 01:32:29;;;;;;;5.80;3.17;;;;;;;16.25;100.00;96209.13;1032019;28;20066;-71
2021/06/04 01:33:12;;;;;;;3.15;2.70;;;;;;;16.25;100.00;96209.13;1031804;28;20026;-72
2021/06/04 01:34:04;;;;;;;3.38;3.05;;;;;;;16.25;100.00;96208.34;1033454;28;20029;-71
2021/06/04 01:35:05;;;;;;;3.30;2.72;;;;;;;16.23;100.00;96206.00;1030712;28;20033;-71
2021/06/04 01:35:54;;;;;;;3.53;2.63;;;;;;;16.20;99.29;96198.63;1038359;28;20513;-71
2021/06/04 01:36:30;;;;;;;2.90;2.60;;;;;;;16.22;99.13;96201.75;1036698;28;20083;-71
2021/06/04 01:37:22;;;;;;;4.68;2.92;;;;;;;16.20;97.76;96195.19;1026641;28;20452;-71
2021/06/04 01:37:52;;;;;;;3.17;2.55;;;;;;;16.16;97.94;96200.28;1025934;28;20038;-72
2021/06/04 01:38:28;;;;;;;3.15;2.85;;;;;;;16.14;98.69;96191.81;1032199;28;20056;-71
2021/06/04 01:39:03;;;;;;;3.72;2.83;;;;;;;16.21;98.17;96202.81;1039501;28;20386;-72
2021/06/04 01:39:37;;;;;;;3.20;2.85;;;;;;;16.21;98.88;96202.81;1026875;28;20030;-72
2021/06/04 01:40:09;;;;;;;5.32;2.30;;;;;;;16.17;97.91;96198.41;1031244;28;20061;-71
2021/06/04 01:40:42;;;;;;;4.18;2.85;;;;;;;16.21;98.40;96202.81;1027451;28;20082;-71
2021/06/04 01:41:13;;;;;;;3.80;2.80;;;;;;;16.21;97.38;96194.88;1032417;28;20022;-71
2021/06/04 01:41:45;;;;;;;6.38;2.50;;;;;;;16.21;97.79;96197.53;1031059;28;20022;-72
2021/06/04 01:42:19;;;;;;;4.57;2.72;;;;;;;16.22;98.68;96201.75;1023618;29;20718;-71
2021/06/04 01:42:49;;;;;;;5.88;3.00;;;;;;;16.21;98.19;96196.75;1031304;28;20023;-72
2021/06/04 01:43:22;;;;;;;3.10;2.45;;;;;;;16.19;98.01;96202.31;1038000;28;20029;-71
2021/06/04 01:43:59;;;;;;;2.90;2.60;;;;;;;16.15;97.74;96201.31;1033396;28;20594;-71
2021/06/04 01:44:32;;;;;;;3.35;2.55;;;;;;;16.20;99.33;96201.25;1029083;28;20044;-71
2021/06/04 01:45:07;;;;;;;2.88;2.33;;;;;;;16.21;97.99;96207.34;1025061;28;20460;-71
2021/06/04 01:45:41;;;;;;;2.78;2.58;;;;;;;16.19;98.14;96204.19;1027248;28;20022;-70
2021/06/04 01:46:23;;;;;;;3.47;2.50;;;;;;;16.22;98.80;96201.75;1027390;28;20038;-71
2021/06/04 01:46:59;;;;;;;4.55;3.20;;;;;;;16.21;97.40;96202.81;1035341;28;20080;-72
2021/06/04 01:47:35;;;;;;;3.10;2.70;;;;;;;16.20;97.65;96195.97;1031431;28;20030;-71
2021/06/04 01:48:21;;;;;;;3.97;2.63;;;;;;;16.22;97.82;96201.75;1030934;28;20022;-71
2021/06/04 01:48:51;;;;;;;4.35;2.90;;;;;;;16.14;97.56;96194.47;1031503;28;20006;-71
2021/06/04 01:49:24;;;;;;;3.33;2.78;;;;;;;16.22;98.79;96206.25;1027541;28;20019;-72
2021/06/04 01:49:55;;;;;;;6.63;3.08;;;;;;;16.13;99.51;96195.53;1036033;28;20017;-72
2021/06/04 01:50:28;;;;;;;4.18;2.95;;;;;;;16.21;98.72;96202.81;1035617;28;20503;-70
2021/06/04 01:51:01;;;;;;;4.10;2.60;;;;;;;16.21;99.04;96202.03;1027509;28;20105;-71
2021/06/04 01:51:36;;;;;;;6.95;2.78;;;;;;;16.22;98.55;96200.97;1027157;28;20019;-71
2021/06/04 01:52:13;;;;;;;3.83;2.88;;;;;;;16.23;96.34;96198.03;1032690;28;20027;-71
2021/06/04 01:52:44;;;;;;;3.25;2.58;;;;;;;16.23;96.73;96203.34;1033120;28;20014;-71
2021/06/04 01:53:22;;;;;;;4.20;2.88;;;;;;;16.25;96.43;96203.81;1028113;28;20394;-71
2021/06/04 01:54:01;;;;;;;4.90;2.88;;;;;;;16.25;96.77;96198.53;1029316;28;20026;-71
2021/06/04 01:54:38;;;;;;;4.13;2.97;;;;;;;16.23;97.01;96192.75;1039247;28;20025;-71
2021/06/04 01:55:12;;;;;;;5.60;2.72;;;;;;;16.29;96.66;96200.59;1038917;28;20052;-70
2021/06/04 01:55:45;;;;;;;2.78;2.53;;;;;;;16.22;96.03;96191.16;1033582;28;20050;-69
2021/06/04 01:56:22;;;;;;;4.28;3.00;;;;;;;16.24;95.72;96196.97;1035198;28;20022;-71
2021/06/04 01:57:04;;;;;;;3.65;2.70;;;;;;;16.30;96.11;96199.53;1043161;28;20025;-72
2021/06/04 01:57:39;;;;;;;3.40;2.80;;;;;;;16.32;95.13;96192.88;1039666;28;20440;-71
2021/06/04 01:58:21;;;;;;;4.47;2.75;;;;;;;16.34;95.19;96200.53;1043445;28;20128;-71
2021/06/04 01:59:00;;;;;;;3.78;2.63;;;;;;;16.35;94.03;96202.09;1035391;28;20391;-71
2021/06/04 01:59:33;;;;;;;6.30;2.88;;;;;;;16.34;95.30;96192.59;1031349;28;20018;-71
2021/06/04 02:00:14;;;;;;;4.25;3.15;;;;;;;16.35;95.03;96197.59;1031679;28;20018;-71
2021/06/04 02:00:51;;;;;;;3.45;3.13;;;;;;;16.37;93.59;96205.25;1023270;29;20019;-71
2021/06/04 02:01:34;;;;;;;4.65;3.65;;;;;;;16.35;94.60;96188.88;1029869;28;20054;-71
2021/06/04 02:02:04;;;;;;;3.40;3.10;;;;;;;16.38;94.57;96197.03;1038237;28;20108;-72
2021/06/04 02:02:35;;;;;;;3.55;3.13;;;;;;;16.36;94.50;96193.88;1041997;28;20022;-72
2021/06/04 02:03:07;;;;;;;4.07;2.72;;;;;;;16.37;93.67;96194.66;1035301;28;20080;-70
2021/06/04 02:03:37;;;;;;;3.75;3.03;;;;;;;16.32;93.91;96184.13;1039250;28;20033;-71
2021/06/04 02:04:10;;;;;;;3.60;3.13;;;;;;;16.32;92.84;96187.56;1035422;28;20022;-71
2021/06/04 02:04:53;;;;;;;5.22;3.22;;;;;;;16.33;93.14;96185.72;1035325;28;20038;-71
2021/06/04 02:05:27;;;;;;;4.80;2.53;;;;;;;16.40;92.43;96197.53;1031026;28;20021;-71
2021/06/04 02:06:00;;;;;;;3.08;2.75;;;;;;;16.40;92.12;96196.75;1026815;28;20745;-72
2021/06/04 02:06:30;;;;;;;5.10;3.05;;;;;;;16.39;93.54;96203.09;1035251;28;20026;-71
2021/06/04 02:07:02;;;;;;;3.15;2.63;;;;;;;16.38;93.44;96201.53;1035082;28;20013;-70
2021/06/04 02:07:33;;;;;;;3.83;2.80;;;;;;;16.37;93.36;96199.97;1031822;28;20661;-72
2021/06/04 02:08:04;;;;;;;4.70;3.03;;;;;;;16.35;93.99;96192.28;1031325;28;20018;-71
2021/06/04 02:08:48;;;;;;;4.55;2.60;;;;;;;16.39;92.80;96203.09;1035122;28;20030;-70
2021/06/04 02:09:25;;;;;;;3.20;2.90;;;;;;;16.33;93.94;96193.66;1031450;28;20125;-70
2021/06/04 02:09:57;;;;;;;3.78;2.83;;;;;;;16.31;94.83;96190.53;1034222;28;20103;-70
2021/06/04 02:10:31;;;;;;;4.05;2.70;;;;;;;16.31;93.19;96190.53;1026844;28;20082;-71
2021/06/04 02:11:02;;;;;;;2.70;2.45;;;;;;;16.34;93.89;96190.72;1031299;28;20104;-70
2021/06/04 02:11:32;;;;;;;4.28;2.53;;;;;;;16.39;93.77;96203.88;1039428;28;20021;-71
2021/06/04 02:12:04;;;;;;;3.88;2.80;;;;;;;16.34;94.26;96198.69;1032324;28;20026;-71
2021/06/04 02:12:34;;;;;;;3.28;2.80;;;;;;;16.32;93.96;96194.72;1031423;28;20652;-71
2021/06/04 02:13:05;;;;;;;4.20;3.08;;;;;;;16.38;93.80;96204.19;1035114;28;20097;-70
2021/06/04 02:13:35;;;;;;;3.33;2.90;;;;;;;16.36;94.12;96201.81;1031131;28;20022;-68
2021/06/04 02:14:11;;;;;;;4.82;3.05;;;;;;;16.32;94.72;96192.09;1039505;28;20025;-72
2021/06/04 02:14:49;;;;;;;2.92;2.70;;;;;;;16.33;94.52;96193.66;1036864;28;20022;-71
2021/06/04 02:15:26;;;;;;;4.90;3.00;;;;;;;16.39;95.11;96198.59;1031134;28;20538;-70
2021/06/04 02:16:43;;;;;;;3.78;3.10;;;;;;;16.39;95.25;96200.44;1026653;28;20591;-71
2021/06/04 02:17:28;;;;;;;7.03;3.40;;;;;;;16.37;95.94;96202.63;1026624;28;20041;-72
2021/06/04 02:18:20;;;;;;;6.05;3.05;;;;;;;16.37;95.25;96210.56;1038824;28;20037;-71
2021/06/04 02:18:58;;;;;;;6.45;3.08;;;;;;;16.29;96.66;96196.09;1035165;28;20018;-71
2021/06/04 02:19:52;;;;;;;4.13;2.90;;;;;;;16.33;96.88;96209.53;1036622;28;20124;-71
2021/06/04 02:20:37;;;;;;;4.05;2.80;;;;;;;16.31;96.47;96201.13;1035484;28;20030;-71
2021/06/04 02:21:15;;;;;;;3.38;2.80;;;;;;;16.32;97.07;96207.97;1028021;28;20023;-71
2021/06/04 02:22:11;;;;;;;3.42;2.78;;;;;;;16.33;97.22;96217.50;1035416;28;20098;-70
2021/06/04 02:22:58;;;;;;;3.38;3.05;;;;;;;16.32;96.79;96213.28;1038759;28;20033;-71
2021/06/04 02:23:48;;;;;;;4.72;3.08;;;;;;;16.30;97.82;96212.75;1036660;28;20026;-71
2021/06/04 02:24:28;;;;;;;3.30;3.00;;;;;;;16.23;96.48;96203.34;1032009;28;20087;-72
2021/06/04 02:25:11;;;;;;;3.30;2.78;;;;;;;16.26;97.65;96215.19;1031296;28;20038;-71
2021/06/04 02:25:50;;;;;;;5.50;2.90;;;;;;;16.24;96.92;96207.56;1031450;28;20107;-71
2021/06/04 02:26:45;;;;;;;4.80;3.13;;;;;;;16.25;98.65;96213.63;1035373;28;20511;-72
2021/06/04 02:27:19;;;;;;;2.92;2.72;;;;;;;16.20;98.68;96203.91;1039016;28;20045;-71
2021/06/04 02:27:52;;;;;;;3.88;3.10;;;;;;;16.21;98.22;96208.13;1041646;28;20052;-71
2021/06/04 02:29:06;;;;;;;4.05;3.00;;;;;;;16.22;97.43;96217.63;1039482;28;20029;-72
2021/06/04 02:29:41;;;;;;;3.10;2.80;;;;;;;16.22;99.25;96214.97;1029610;28;20554;-70
2021/06/04 02:30:19;;;;;;;6.82;2.83;;;;;;;16.23;100.00;96216.59;1025234;28;20551;-71
2021/06/04 02:31:17;;;;;;;6.85;3.35;;;;;;;16.23;100.00;96221.06;1030950;28;20159;-71
2021/06/04 02:31:50;;;;;;;3.35;3.00;;;;;;;16.21;100.00;96221.38;1026666;28;20115;-72
2021/06/04 02:32:25;;;;;;;3.95;2.80;;;;;;;16.18;100.00;96216.63;1028746;28;20026;-71
2021/06/04 02:33:03;;;;;;;4.53;3.20;;;;;;;16.17;100.00;96222.22;1031208;28;20108;-70
2021/06/04 02:33:39;;;;;;;5.05;3.25;;;;;;;16.18;100.00;96221.94;1026983;28;20538;-71
2021/06/04 02:34:31;;;;;;;2.75;2.55;;;;;;;16.17;100.00;96217.72;1027523;28;20015;-72
2021/06/04 02:35:07;;;;;;;3.83;3.13;;;;;;;16.12;100.00;96224.94;1031287;28;20658;-72
2021/06/04 02:35:41;;;;;;;5.00;3.25;;;;;;;16.08;100.00;96216.78;1031142;28;20061;-71
2021/06/04 02:36:14;;;;;;;5.85;3.33;;;;;;;16.07;100.00;96223.16;1034773;28;20017;-72
2021/06/04 02:36:51;;;;;;;4.82;3.25;;;;;;;16.07;100.00;96217.84;1031285;28;20015;-71
2021/06/04 02:37:29;;;;;;;3.72;3.42;;;;;;;15.97;100.00;96213.47;1037089;28;20041;-71
2021/06/04 02:38:22;;;;;;;5.95;3.70;;;;;;;16.03;100.00;96214.22;1032333;28;20014;-71
2021/06/04 02:38:59;;;;;;;7.32;3.75;;;;;;;16.01;100.00;96211.84;1034095;28;20496;-70
2021/06/04 02:39:32;;;;;;;7.38;3.85;;;;;;;15.99;100.00;96221.13;1027365;28;20022;-72
2021/06/04 02:40:10;;;;;;;6.15;3.83;;;;;;;15.95;100.00;96220.91;1035128;28;20026;-71
2021/06/04 02:40:44;;;;;;;7.95;4.22;;;;;;;15.95;100.00;96223.56;1035220;28;20024;-71
2021/06/04 02:41:21;;;;;;;10.18;4.10;;;;;;;15.92;100.00;96218.03;1033226;28;20021;-71
2021/06/04 02:42:00;;;;;;;4.45;3.70;;;;;;;15.94;100.00;96222.00;1034966;28;20112;-72
2021/06/04 02:43:01;;;;;;;10.43;3.72;;;;;;;15.95;100.00;96220.13;1027186;28;20488;-71
2021/06/04 02:43:35;;;;;;;6.00;4.15;;;;;;;15.89;100.00;96221.25;1015940;28;20578;-72
2021/06/04 02:44:11;;;;;;;5.07;3.90;;;;;;;15.86;100.00;96221.81;1027548;28;20018;-71
2021/06/04 02:44:50;;;;;;;6.43;4.47;;;;;;;15.85;100.00;96225.56;1032434;28;20038;-70
2021/06/04 02:45:35;;;;;;;10.00;4.55;;;;;;;15.84;100.00;96229.28;1035294;28;20393;-71
2021/06/04 02:46:08;;;;;;;6.72;4.82;;;;;;;15.81;100.00;96225.34;1033639;28;20014;-71
2021/06/04 02:46:41;;;;;;;5.07;4.10;;;;;;;15.79;100.00;96230.91;1034421;28;20025;-70
2021/06/04 02:47:16;;;;;;;5.00;4.18;;;;;;;15.77;100.00;96221.69;1031139;28;20152;-71
2021/06/04 02:47:50;;;;;;;6.28;4.10;;;;;;;15.77;100.00;96226.97;1031088;28;20022;-71
2021/06/04 02:48:24;;;;;;;8.68;4.65;;;;;;;15.77;100.00;96230.41;1034229;28;20488;-71
2021/06/04 02:48:55;;;;;;;4.85;4.20;;;;;;;15.71;100.00;96217.53;1031228;28;20018;-72
2021/06/04 02:49:26;;;;;;;5.30;4.80;;;;;;;15.75;100.00;96227.25;1031006;28;20042;-71
2021/06/04 02:49:56;;;;;;;7.03;4.50;;;;;;;15.76;100.00;96228.84;1030929;28;20054;-71